Time;durP1;ratioP1;P1;durP2;ratioP2;P2;SDS_P1;SDS_P2;PMS_P1;PMS_P2;Temp;Humidity;BMP_temperature;BMP_pressure;BME280_temperature;BME280_humidity;BME280_pressure;Samples;Min_cycle;Max_cycle;Signal;HPM_P1;HPM_P2
2021/12/28 00:03:53;;;;;;;71.22;33.17;;;0.90;99.90;;;;;;4997024;28;20204;-71
2021/12/28 00:06:23;;;;;;;82.82;35.17;;;1.00;99.90;;;;;;4995551;28;20436;-69
2021/12/28 00:08:52;;;;;;;67.85;33.42;;;1.00;99.90;;;;;;4995854;28;20203;-71
2021/12/28 00:11:19;;;;;;;67.15;33.42;;;1.00;99.90;;;;;;4995808;28;20187;-69
2021/12/28 00:13:47;;;;;;;68.25;33.20;;;1.00;99.90;;;;;;4995879;28;20566;-69
2021/12/28 00:18:44;;;;;;;72.35;33.25;;;1.00;99.90;;;;;;4996803;28;20203;-69
2021/12/28 00:21:11;;;;;;;76.80;32.00;;;1.00;99.90;;;;;;4994850;28;20230;-69
2021/12/28 00:23:43;;;;;;;88.15;37.03;;;1.00;99.90;;;;;;4995053;28;20200;-69
2021/12/28 00:26:14;;;;;;;79.80;34.67;;;1.00;99.90;;;;;;5002026;28;20242;-71
2021/12/28 00:28:44;;;;;;;72.70;34.13;;;1.00;99.90;;;;;;5034365;28;20301;-68
2021/12/28 00:31:13;;;;;;;72.93;35.28;;;1.00;99.90;;;;;;5034316;28;20192;-71
2021/12/28 00:33:45;;;;;;;83.18;33.85;;;1.10;99.90;;;;;;5033161;28;20210;-72
2021/12/28 00:36:17;;;;;;;78.47;31.75;;;1.10;99.90;;;;;;5032382;28;20178;-71
2021/12/28 00:38:45;;;;;;;93.45;43.13;;;1.10;99.90;;;;;;5032136;28;20690;-69
2021/12/28 00:41:16;;;;;;;73.70;35.30;;;1.10;99.90;;;;;;5032192;28;20695;-69
2021/12/28 00:43:48;;;;;;;63.85;31.35;;;1.20;99.90;;;;;;5031708;28;20195;-69
2021/12/28 00:46:17;;;;;;;65.00;27.77;;;1.20;99.90;;;;;;5032102;28;20170;-68
2021/12/28 00:48:43;;;;;;;63.55;30.17;;;1.30;99.90;;;;;;5032724;28;20680;-69
2021/12/28 00:51:12;;;;;;;73.57;32.33;;;1.30;99.90;;;;;;5034136;28;20265;-69
2021/12/28 00:53:41;;;;;;;66.28;31.50;;;1.30;99.90;;;;;;5034627;28;20202;-69
2021/12/28 00:56:08;;;;;;;82.90;33.22;;;1.30;99.90;;;;;;5031994;28;20179;-71
2021/12/28 00:58:37;;;;;;;75.95;31.58;;;1.30;99.90;;;;;;5032029;28;20198;-70
2021/12/28 01:01:05;;;;;;;59.53;27.85;;;1.30;99.90;;;;;;5032115;28;20550;-71
2021/12/28 01:03:37;;;;;;;61.78;27.13;;;1.40;99.90;;;;;;5032007;28;20198;-71
2021/12/28 01:06:04;;;;;;;67.95;29.00;;;1.40;99.90;;;;;;5032222;28;20188;-71
2021/12/28 01:08:31;;;;;;;69.70;29.42;;;1.40;99.90;;;;;;5034139;28;20245;-70
2021/12/28 01:11:00;;;;;;;61.33;28.00;;;1.40;99.90;;;;;;5034047;28;20543;-71
2021/12/28 01:13:33;;;;;;;61.00;28.15;;;1.40;99.90;;;;;;5033551;28;20202;-69
2021/12/28 01:16:02;;;;;;;53.15;24.45;;;1.40;99.90;;;;;;5033402;28;20187;-71
2021/12/28 01:18:31;;;;;;;57.13;25.88;;;1.40;99.90;;;;;;5033441;28;20667;-69
2021/12/28 01:20:58;;;;;;;59.97;27.58;;;1.40;99.90;;;;;;5035130;28;20170;-69
2021/12/28 01:23:31;;;;;;;74.15;28.42;;;1.40;99.90;;;;;;5033411;28;20738;-69
2021/12/28 01:25:59;;;;;;;58.50;26.70;;;1.40;99.90;;;;;;5033009;28;20193;-71
2021/12/28 01:28:27;;;;;;;53.83;26.58;;;1.40;99.90;;;;;;5033384;28;20219;-70
2021/12/28 01:30:56;;;;;;;62.03;27.25;;;1.40;99.90;;;;;;5033008;28;20639;-70
2021/12/28 01:33:24;;;;;;;66.68;26.60;;;1.40;99.90;;;;;;5032879;28;20285;-69
2021/12/28 01:35:54;;;;;;;50.35;24.98;;;1.40;99.90;;;;;;5033252;28;20190;-70
2021/12/28 01:38:23;;;;;;;53.63;23.05;;;1.40;99.90;;;;;;5032859;28;20580;-69
2021/12/28 01:41:00;;;;;;;62.42;25.65;;;1.40;99.90;;;;;;5032792;28;20189;-71
2021/12/28 01:43:33;;;;;;;61.47;26.40;;;1.40;99.90;;;;;;5032286;28;20202;-69
2021/12/28 01:46:01;;;;;;;50.38;22.35;;;1.40;99.90;;;;;;5033090;28;20666;-71
2021/12/28 01:48:33;;;;;;;40.63;20.65;;;1.40;99.90;;;;;;5032697;28;20210;-69
2021/12/28 01:51:07;;;;;;;57.35;25.92;;;1.40;99.90;;;;;;5032892;28;20232;-69
2021/12/28 01:53:42;;;;;;;51.90;25.48;;;1.40;99.90;;;;;;5032623;28;20247;-69
2021/12/28 01:56:22;;;;;;;59.28;27.55;;;1.40;99.90;;;;;;5033194;28;20273;-70
2021/12/28 01:58:49;;;;;;;41.08;18.60;;;1.40;99.90;;;;;;5032946;28;20201;-69
2021/12/28 02:01:17;;;;;;;36.88;16.20;;;1.40;99.90;;;;;;5032883;28;20619;-71
2021/12/28 02:03:48;;;;;;;39.58;18.35;;;1.40;99.90;;;;;;5032302;28;20209;-71
2021/12/28 02:06:25;;;;;;;29.55;15.40;;;1.40;99.90;;;;;;5032794;28;20274;-71
2021/12/28 02:09:04;;;;;;;29.38;14.57;;;1.40;99.90;;;;;;5032726;28;20578;-71
2021/12/28 02:11:34;;;;;;;30.75;16.75;;;1.40;99.90;;;;;;5032451;28;20201;-71
2021/12/28 02:14:01;;;;;;;36.70;16.00;;;1.40;99.90;;;;;;5032725;28;20198;-72
2021/12/28 02:16:29;;;;;;;39.78;16.13;;;1.40;99.90;;;;;;5032811;28;20278;-71
2021/12/28 02:18:56;;;;;;;42.50;17.95;;;1.50;99.90;;;;;;5032550;28;20625;-69
2021/12/28 02:21:25;;;;;;;49.70;18.85;;;1.50;99.90;;;;;;5032668;28;20193;-70
2021/12/28 02:23:54;;;;;;;40.22;18.00;;;1.50;99.90;;;;;;5032561;28;20194;-71
2021/12/28 02:26:28;;;;;;;35.50;15.30;;;1.40;99.90;;;;;;5032856;28;20291;-71
2021/12/28 02:28:58;;;;;;;36.50;15.73;;;1.40;99.90;;;;;;5032754;28;20198;-69
2021/12/28 02:31:26;;;;;;;40.63;14.77;;;1.40;99.90;;;;;;5032456;28;20190;-71
2021/12/28 02:33:58;;;;;;;31.58;15.13;;;1.40;99.90;;;;;;5032408;28;20206;-71
2021/12/28 02:36:27;;;;;;;42.78;16.50;;;1.40;99.90;;;;;;5032496;28;20640;-69
2021/12/28 02:38:55;;;;;;;35.00;15.80;;;1.30;99.90;;;;;;5032232;28;20218;-71
2021/12/28 02:41:23;;;;;;;35.70;15.93;;;1.30;99.90;;;;;;5032295;28;20182;-71
2021/12/28 02:43:50;;;;;;;29.00;15.00;;;1.30;99.90;;;;;;5034576;28;20191;-69
2021/12/28 02:46:18;;;;;;;34.67;15.45;;;1.30;99.90;;;;;;5035797;28;20551;-71
2021/12/28 02:48:46;;;;;;;34.08;15.40;;;1.20;99.90;;;;;;5036250;28;20194;-70
2021/12/28 02:51:15;;;;;;;29.75;15.88;;;1.20;99.90;;;;;;5036426;28;20182;-69
2021/12/28 02:53:45;;;;;;;42.88;16.35;;;1.20;99.90;;;;;;5036177;28;20243;-71
2021/12/28 02:56:13;;;;;;;36.80;17.00;;;1.10;99.90;;;;;;5035967;28;20182;-71
2021/12/28 02:58:44;;;;;;;31.30;15.38;;;1.20;99.90;;;;;;5036195;28;20253;-71
2021/12/28 03:01:20;;;;;;;33.72;15.43;;;1.20;99.90;;;;;;5036201;28;20186;-69
2021/12/28 03:03:52;;;;;;;31.77;14.23;;;1.10;99.90;;;;;;5036153;28;20674;-70
2021/12/28 03:06:25;;;;;;;33.70;14.77;;;1.10;99.90;;;;;;5036159;28;20284;-71
2021/12/28 03:08:54;;;;;;;34.00;13.93;;;1.10;99.90;;;;;;5036310;28;20199;-70
2021/12/28 03:11:24;;;;;;;30.25;13.60;;;1.10;99.90;;;;;;5035811;28;20534;-71
2021/12/28 03:13:57;;;;;;;27.63;13.23;;;1.00;99.90;;;;;;5035964;28;20224;-69
2021/12/28 03:16:29;;;;;;;26.30;13.05;;;1.00;99.90;;;;;;5035891;28;20186;-70
2021/12/28 03:19:08;;;;;;;25.00;11.93;;;1.00;99.90;;;;;;5035914;28;20281;-71
2021/12/28 03:21:41;;;;;;;35.85;14.40;;;1.00;99.90;;;;;;5035804;28;20253;-69
2021/12/28 03:24:10;;;;;;;27.45;14.43;;;1.00;99.90;;;;;;5035672;28;20191;-71
2021/12/28 03:26:39;;;;;;;28.85;13.40;;;1.00;99.90;;;;;;5035391;28;20257;-69
2021/12/28 03:29:06;;;;;;;24.23;10.88;;;1.00;99.90;;;;;;5035766;28;20201;-71
2021/12/28 03:31:36;;;;;;;22.75;11.20;;;1.00;99.90;;;;;;5035822;28;20182;-70
2021/12/28 03:34:06;;;;;;;23.50;10.18;;;1.00;99.90;;;;;;5035496;28;20195;-71
2021/12/28 03:36:35;;;;;;;18.77;9.80;;;0.90;99.90;;;;;;5035366;28;20233;-69
2021/12/28 03:39:02;;;;;;;26.85;11.30;;;0.90;99.90;;;;;;5035404;28;20198;-70
2021/12/28 03:41:31;;;;;;;27.90;11.82;;;0.90;99.90;;;;;;5035177;28;20186;-71
2021/12/28 03:44:01;;;;;;;25.05;11.90;;;1.00;99.90;;;;;;5035288;28;20249;-70
2021/12/28 03:46:32;;;;;;;20.75;9.95;;;1.00;99.90;;;;;;5035412;28;20215;-69
2021/12/28 03:49:08;;;;;;;17.42;7.78;;;1.00;99.90;;;;;;5035398;28;20636;-69
2021/12/28 03:51:35;;;;;;;18.58;9.15;;;0.90;99.90;;;;;;5035417;28;20190;-69
2021/12/28 03:54:03;;;;;;;15.52;8.00;;;0.80;99.90;;;;;;5035055;28;20210;-71
2021/12/28 03:56:33;;;;;;;16.20;8.98;;;0.80;99.90;;;;;;5034822;28;20186;-69
2021/12/28 03:59:01;;;;;;;16.20;8.23;;;0.70;99.90;;;;;;5035235;28;20202;-70
2021/12/28 04:01:32;;;;;;;17.77;9.18;;;0.70;99.90;;;;;;5035243;28;20678;-69
2021/12/28 04:03:59;;;;;;;19.63;9.15;;;0.80;99.90;;;;;;5034959;28;20609;-69
2021/12/28 04:06:30;;;;;;;21.48;10.05;;;0.70;99.90;;;;;;5035342;28;20248;-69
2021/12/28 04:08:58;;;;;;;19.80;9.73;;;0.70;99.90;;;;;;5034823;28;20199;-70
2021/12/28 04:11:27;;;;;;;16.30;8.50;;;0.70;99.90;;;;;;5034753;28;20197;-70
2021/12/28 04:13:58;;;;;;;17.75;8.70;;;0.70;99.90;;;;;;5034700;28;20201;-70
2021/12/28 04:16:33;;;;;;;18.38;9.50;;;0.70;99.90;;;;;;5034794;28;20200;-69
2021/12/28 04:19:04;;;;;;;25.30;9.68;;;0.70;99.90;;;;;;5034754;28;20884;-71
2021/12/28 04:21:33;;;;;;;23.75;10.15;;;0.70;99.90;;;;;;5035095;28;20205;-69
2021/12/28 04:24:04;;;;;;;16.65;8.57;;;0.70;99.90;;;;;;5034525;28;20539;-69
2021/12/28 04:26:45;;;;;;;20.77;9.73;;;0.70;99.90;;;;;;5034286;28;20250;-69
2021/12/28 04:29:25;;;;;;;22.25;9.65;;;0.70;99.90;;;;;;5034417;28;20697;-71
2021/12/28 04:31:56;;;;;;;18.73;7.95;;;0.70;99.90;;;;;;5034474;28;20178;-71
2021/12/28 04:34:22;;;;;;;17.25;8.40;;;0.70;99.90;;;;;;5034470;28;20281;-69
2021/12/28 04:36:51;;;;;;;18.40;7.60;;;0.70;99.90;;;;;;5034542;28;20272;-69
2021/12/28 04:39:19;;;;;;;14.25;7.68;;;0.60;99.90;;;;;;5034442;28;20548;-69
2021/12/28 04:41:48;;;;;;;13.60;7.55;;;0.60;99.90;;;;;;5035642;28;20225;-69
2021/12/28 04:44:25;;;;;;;16.00;8.35;;;0.60;99.90;;;;;;5034461;28;20261;-69
2021/12/28 04:46:56;;;;;;;12.60;6.43;;;0.60;99.90;;;;;;5034334;28;20222;-69
2021/12/28 04:49:28;;;;;;;16.00;6.20;;;0.60;99.90;;;;;;5034268;28;20182;-69
2021/12/28 04:51:55;;;;;;;13.20;6.22;;;0.60;99.90;;;;;;5034316;28;20269;-70
2021/12/28 04:54:23;;;;;;;17.45;8.50;;;0.60;99.90;;;;;;5034267;28;20182;-69
2021/12/28 04:56:49;;;;;;;22.35;7.93;;;0.60;99.90;;;;;;5033953;28;20183;-71
2021/12/28 04:59:22;;;;;;;12.68;6.10;;;0.60;99.90;;;;;;5033996;28;20203;-69
2021/12/28 05:01:51;;;;;;;28.13;10.07;;;0.60;99.90;;;;;;5034060;28;20197;-69
2021/12/28 05:04:19;;;;;;;19.02;7.70;;;0.60;99.90;;;;;;5033523;28;20569;-70
2021/12/28 05:06:46;;;;;;;21.55;8.15;;;0.60;99.90;;;;;;5032893;28;20301;-69
2021/12/28 05:09:15;;;;;;;17.45;7.32;;;0.50;99.90;;;;;;5033391;28;20206;-69
2021/12/28 05:11:48;;;;;;;22.08;8.68;;;0.50;99.90;;;;;;5033628;28;20185;-71
2021/12/28 05:14:17;;;;;;;18.65;8.90;;;0.50;99.90;;;;;;5033564;28;20207;-69
2021/12/28 05:16:44;;;;;;;17.77;8.00;;;0.50;99.90;;;;;;5033410;28;20299;-70
2021/12/28 05:19:16;;;;;;;21.02;8.80;;;0.50;99.90;;;;;;5034847;28;20667;-70
2021/12/28 05:21:43;;;;;;;25.98;10.77;;;0.60;99.90;;;;;;5033308;28;20632;-68
2021/12/28 05:24:19;;;;;;;24.02;9.88;;;0.60;99.90;;;;;;5034785;28;20256;-69
2021/12/28 05:26:46;;;;;;;22.50;9.27;;;0.60;99.90;;;;;;5033232;28;20238;-69
2021/12/28 05:29:13;;;;;;;19.27;9.52;;;0.60;99.90;;;;;;5033314;28;20236;-69
2021/12/28 05:31:39;;;;;;;20.00;9.70;;;0.70;99.90;;;;;;5033469;28;20601;-71
2021/12/28 05:34:08;;;;;;;20.73;10.80;;;0.70;99.90;;;;;;5033103;28;20210;-71
2021/12/28 05:36:36;;;;;;;20.25;9.63;;;0.70;99.90;;;;;;5033477;28;20656;-70
2021/12/28 05:39:08;;;;;;;31.45;11.00;;;0.80;99.90;;;;;;5033177;28;20201;-69
2021/12/28 05:41:45;;;;;;;26.98;10.65;;;0.80;99.90;;;;;;5033004;28;20432;-70
2021/12/28 05:44:20;;;;;;;19.73;10.70;;;0.80;99.90;;;;;;5034346;28;20209;-69
2021/12/28 05:46:49;;;;;;;20.45;10.25;;;0.80;99.90;;;;;;5033128;28;20617;-70
2021/12/28 05:49:19;;;;;;;26.00;11.00;;;0.80;99.90;;;;;;5032713;28;20294;-69
2021/12/28 05:51:50;;;;;;;25.10;12.73;;;0.70;99.90;;;;;;5033092;28;20653;-69
2021/12/28 05:54:18;;;;;;;26.92;10.45;;;0.70;99.90;;;;;;5033269;28;20273;-70
2021/12/28 05:56:46;;;;;;;24.40;11.90;;;0.80;99.90;;;;;;5032997;28;20273;-69
2021/12/28 05:59:13;;;;;;;28.08;11.60;;;0.80;99.90;;;;;;5032749;28;20195;-69
2021/12/28 06:01:41;;;;;;;21.52;10.40;;;0.80;99.90;;;;;;5032933;28;20205;-69
2021/12/28 06:04:07;;;;;;;25.83;11.93;;;0.90;99.90;;;;;;5032783;28;20209;-69
2021/12/28 06:06:36;;;;;;;21.77;9.95;;;0.90;99.90;;;;;;5033840;28;20392;-69
2021/12/28 06:09:04;;;;;;;17.40;8.20;;;0.90;99.90;;;;;;5033898;28;20194;-68
2021/12/28 06:11:32;;;;;;;18.95;9.50;;;0.90;99.90;;;;;;5032697;28;20206;-70
2021/12/28 06:14:07;;;;;;;23.15;9.88;;;0.90;99.90;;;;;;5032624;28;20214;-68
2021/12/28 06:16:36;;;;;;;25.98;11.75;;;0.90;99.90;;;;;;5032159;28;20189;-69
2021/12/28 06:19:05;;;;;;;23.77;12.30;;;0.90;99.90;;;;;;5031237;28;20213;-70
2021/12/28 06:21:38;;;;;;;24.67;11.45;;;1.00;99.90;;;;;;5032489;28;20209;-69
2021/12/28 06:24:10;;;;;;;19.25;10.80;;;1.00;99.90;;;;;;5032216;28;20636;-71
2021/12/28 06:26:37;;;;;;;26.48;11.98;;;1.00;99.90;;;;;;5032360;28;20246;-69
2021/12/28 06:29:16;;;;;;;27.75;12.38;;;1.00;99.90;;;;;;5032336;28;20256;-70
2021/12/28 06:31:44;;;;;;;29.30;14.10;;;1.00;99.90;;;;;;5032404;28;20186;-70
2021/12/28 06:34:10;;;;;;;22.85;12.15;;;1.00;99.90;;;;;;5032397;28;20213;-69
2021/12/28 06:36:37;;;;;;;32.15;13.75;;;1.00;99.90;;;;;;5032539;28;20182;-71
2021/12/28 06:39:07;;;;;;;33.42;15.20;;;1.00;99.90;;;;;;5032665;28;20207;-69
2021/12/28 06:41:36;;;;;;;32.75;16.23;;;1.00;99.90;;;;;;5032367;28;20174;-70
2021/12/28 06:44:10;;;;;;;40.40;17.33;;;1.00;99.90;;;;;;5032131;28;20210;-71
2021/12/28 06:46:38;;;;;;;33.42;16.70;;;1.00;99.90;;;;;;5032203;28;20202;-70
2021/12/28 06:49:07;;;;;;;35.58;17.00;;;1.00;99.90;;;;;;5032092;28;20668;-71
2021/12/28 06:51:36;;;;;;;38.88;18.48;;;1.00;99.90;;;;;;5032304;28;20261;-70
2021/12/28 06:54:08;;;;;;;40.92;17.67;;;1.00;99.90;;;;;;5031919;28;20578;-69
2021/12/28 06:56:36;;;;;;;39.95;18.63;;;1.00;99.90;;;;;;5032568;28;20541;-71
2021/12/28 06:59:05;;;;;;;46.35;19.55;;;1.00;99.90;;;;;;5032085;28;20203;-69
2021/12/28 07:01:35;;;;;;;41.72;20.65;;;1.00;99.90;;;;;;5032039;28;20175;-69
2021/12/28 07:04:05;;;;;;;50.42;20.55;;;1.00;99.90;;;;;;5031677;28;20232;-69
2021/12/28 07:06:34;;;;;;;45.63;19.05;;;1.00;99.90;;;;;;5032014;28;20561;-69
2021/12/28 07:09:09;;;;;;;45.35;19.65;;;1.00;99.90;;;;;;5032121;28;20210;-71
2021/12/28 07:11:39;;;;;;;43.90;20.50;;;1.00;99.90;;;;;;5032179;28;20618;-70
2021/12/28 07:14:11;;;;;;;53.35;22.42;;;1.00;99.90;;;;;;5031765;28;20659;-71
2021/12/28 07:16:41;;;;;;;51.60;21.65;;;1.00;99.90;;;;;;5032178;28;20193;-71
2021/12/28 07:19:11;;;;;;;46.05;21.70;;;1.00;99.90;;;;;;5032374;28;20264;-71
2021/12/28 07:21:42;;;;;;;49.53;20.38;;;1.00;99.90;;;;;;5031805;28;20178;-71
2021/12/28 07:24:10;;;;;;;53.55;22.48;;;1.00;99.90;;;;;;5031711;28;20207;-70
2021/12/28 07:26:37;;;;;;;49.60;20.98;;;1.00;99.90;;;;;;5031870;28;20333;-69
2021/12/28 07:29:05;;;;;;;50.42;21.02;;;1.00;99.90;;;;;;5031909;28;20234;-69
2021/12/28 07:31:33;;;;;;;46.55;21.80;;;1.00;99.90;;;;;;5036565;28;20171;-69
2021/12/28 07:34:02;;;;;;;57.05;21.00;;;1.00;99.90;;;;;;5017188;28;20206;-71
2021/12/28 07:36:35;;;;;;;47.20;20.48;;;1.00;99.90;;;;;;5023280;28;20195;-70
2021/12/28 07:39:06;;;;;;;48.83;19.83;;;1.00;99.90;;;;;;5034904;28;20286;-70
2021/12/28 07:41:34;;;;;;;53.25;22.50;;;1.00;99.90;;;;;;5015324;28;20215;-70
2021/12/28 07:44:04;;;;;;;44.78;18.73;;;1.00;99.90;;;;;;5015510;28;20198;-69
2021/12/28 07:46:33;;;;;;;54.13;20.23;;;1.00;99.90;;;;;;5015665;28;20667;-69
2021/12/28 07:49:02;;;;;;;53.90;22.08;;;1.00;99.90;;;;;;5015560;28;20676;-70
2021/12/28 07:51:31;;;;;;;49.72;19.38;;;1.00;99.90;;;;;;5015733;28;20215;-69
2021/12/28 07:54:00;;;;;;;58.03;24.02;;;1.00;99.90;;;;;;5015413;28;20195;-71
2021/12/28 07:56:27;;;;;;;54.65;20.95;;;1.00;99.90;;;;;;5014692;28;20190;-70
2021/12/28 07:58:57;;;;;;;51.00;22.70;;;1.10;99.90;;;;;;5014614;28;20198;-71
2021/12/28 08:01:24;;;;;;;46.28;21.80;;;1.10;99.90;;;;;;5014739;28;20183;-69
2021/12/28 08:03:55;;;;;;;50.90;21.73;;;1.10;99.90;;;;;;5014196;28;20206;-70
2021/12/28 08:06:24;;;;;;;57.97;21.30;;;1.10;99.90;;;;;;5013649;28;20202;-72
2021/12/28 08:09:06;;;;;;;67.82;30.80;;;1.10;99.90;;;;;;5033095;28;20198;-70
2021/12/28 08:11:42;;;;;;;58.22;24.65;;;1.10;99.90;;;;;;5035898;28;20179;-71
2021/12/28 08:14:12;;;;;;;57.97;25.13;;;1.10;99.90;;;;;;5037713;28;20683;-71
2021/12/28 08:16:39;;;;;;;47.97;23.38;;;1.10;99.90;;;;;;5034609;28;20190;-69
2021/12/28 08:19:09;;;;;;;44.90;19.55;;;1.10;99.90;;;;;;5035013;28;20198;-69
2021/12/28 08:21:36;;;;;;;47.25;19.67;;;1.10;99.90;;;;;;5034771;28;20187;-69
2021/12/28 08:24:08;;;;;;;55.17;20.77;;;1.10;99.90;;;;;;5033884;28;20559;-69
2021/12/28 08:26:38;;;;;;;49.22;20.45;;;1.20;99.90;;;;;;5033315;28;20264;-69
2021/12/28 08:29:06;;;;;;;59.08;27.00;;;1.20;99.90;;;;;;5033941;28;20582;-71
2021/12/28 08:31:35;;;;;;;62.80;23.42;;;1.20;99.90;;;;;;5027443;28;20172;-70
2021/12/28 08:34:05;;;;;;;40.58;19.23;;;1.30;99.90;;;;;;5026834;28;20213;-71
2021/12/28 08:36:35;;;;;;;46.72;18.60;;;1.30;99.90;;;;;;5032350;28;20340;-69
2021/12/28 08:39:03;;;;;;;48.30;18.20;;;1.40;99.90;;;;;;5031556;28;20240;-69
2021/12/28 08:41:30;;;;;;;52.45;21.67;;;1.40;99.90;;;;;;5031626;28;20569;-69
2021/12/28 08:44:05;;;;;;;41.30;18.63;;;1.40;99.90;;;;;;5032098;28;20746;-70
2021/12/28 08:46:34;;;;;;;43.40;19.20;;;1.40;99.90;;;;;;5030946;28;20272;-69
2021/12/28 08:49:00;;;;;;;42.30;17.55;;;1.50;99.90;;;;;;5031651;28;20324;-69
2021/12/28 08:51:28;;;;;;;48.80;17.75;;;1.50;99.90;;;;;;5031998;28;20187;-70
2021/12/28 08:53:54;;;;;;;56.17;21.70;;;1.50;99.90;;;;;;5033021;28;20190;-70
2021/12/28 08:56:21;;;;;;;51.92;23.40;;;1.50;99.90;;;;;;5031160;28;20524;-69
2021/12/28 08:58:50;;;;;;;93.72;40.60;;;1.50;99.90;;;;;;5031150;28;20415;-69
2021/12/28 09:01:21;;;;;;;94.15;39.25;;;1.50;99.90;;;;;;5031421;28;20589;-69
2021/12/28 09:03:49;;;;;;;87.13;36.17;;;1.50;99.90;;;;;;5029693;28;20660;-69
2021/12/28 09:06:15;;;;;;;60.35;22.55;;;1.50;99.90;;;;;;5029657;28;20174;-69
2021/12/28 09:08:44;;;;;;;46.63;18.63;;;1.50;99.90;;;;;;5026346;28;20225;-69
2021/12/28 09:11:11;;;;;;;71.85;33.53;;;1.60;99.90;;;;;;5027354;28;20295;-70
2021/12/28 09:13:39;;;;;;;87.55;37.95;;;1.50;99.90;;;;;;5027967;28;20202;-68
2021/12/28 09:16:06;;;;;;;78.32;34.80;;;1.50;99.90;;;;;;5029010;28;20191;-71
2021/12/28 09:18:33;;;;;;;91.35;41.03;;;1.60;99.90;;;;;;5027643;28;20206;-69
2021/12/28 09:21:00;;;;;;;133.48;65.40;;;1.60;99.90;;;;;;5025885;28;20602;-69
2021/12/28 09:23:28;;;;;;;159.50;71.43;;;1.60;99.90;;;;;;5021701;28;20633;-69
2021/12/28 09:25:56;;;;;;;86.55;43.22;;;1.60;99.90;;;;;;5025334;28;20189;-70
2021/12/28 09:31:11;;;;;;;75.90;37.58;;;1.60;99.90;;;;;;5028529;28;20190;-71
2021/12/28 09:33:45;;;;;;;91.57;43.15;;;1.60;99.90;;;;;;5025843;28;20314;-69
2021/12/28 09:36:17;;;;;;;103.05;54.63;;;1.60;99.90;;;;;;5028081;28;20610;-69
2021/12/28 09:38:45;;;;;;;52.97;23.38;;;1.60;99.90;;;;;;5018983;28;20570;-69
2021/12/28 09:41:18;;;;;;;120.53;63.42;;;1.60;99.90;;;;;;5026009;28;20675;-71
2021/12/28 09:43:44;;;;;;;56.47;33.63;;;1.60;99.90;;;;;;5029252;28;20498;-71
2021/12/28 09:46:17;;;;;;;65.72;30.95;;;1.60;99.90;;;;;;5031311;28;20585;-69
2021/12/28 09:48:44;;;;;;;55.10;27.02;;;1.70;99.90;;;;;;5028961;28;20214;-69
2021/12/28 09:51:17;;;;;;;46.47;23.27;;;1.70;99.90;;;;;;5029539;28;20186;-70
2021/12/28 09:53:59;;;;;;;70.20;33.08;;;1.70;99.90;;;;;;5030643;28;20655;-70
2021/12/28 09:56:31;;;;;;;45.72;19.63;;;1.70;99.90;;;;;;5032339;28;20189;-71
2021/12/28 09:59:04;;;;;;;79.50;42.53;;;1.80;99.90;;;;;;5030505;28;20194;-70
2021/12/28 10:01:39;;;;;;;103.50;48.53;;;1.70;99.90;;;;;;5030374;28;20324;-71
2021/12/28 10:04:09;;;;;;;51.67;22.40;;;1.80;99.90;;;;;;5030807;28;20290;-69
2021/12/28 10:06:37;;;;;;;49.25;24.65;;;1.70;99.90;;;;;;5032850;28;20183;-70
2021/12/28 10:20:34;;;;;;;50.10;21.85;;;1.70;99.90;;;;;;5111958;28;20240;-70
2021/12/28 10:23:13;;;;;;;52.92;21.05;;;1.70;99.90;;;;;;5093459;28;20700;-69
2021/12/28 10:25:56;;;;;;;57.05;27.25;;;1.70;99.90;;;;;;5092584;28;20184;-71
2021/12/28 10:28:24;;;;;;;66.25;37.97;;;1.70;99.90;;;;;;5093289;28;20192;-69
2021/12/28 10:30:57;;;;;;;65.05;34.15;;;1.80;99.90;;;;;;5093538;28;20232;-70
2021/12/28 10:33:28;;;;;;;55.85;23.75;;;1.80;99.90;;;;;;5093116;28;20286;-72
2021/12/28 10:36:01;;;;;;;50.53;24.13;;;1.90;99.90;;;;;;5111261;28;20310;-70
2021/12/28 10:38:40;;;;;;;56.00;22.55;;;1.90;99.90;;;;;;5091893;28;20192;-71
2021/12/28 10:41:17;;;;;;;55.17;25.90;;;1.90;99.90;;;;;;5091627;28;20203;-71
2021/12/28 10:43:49;;;;;;;92.15;49.22;;;2.00;99.90;;;;;;5093112;28;20282;-69
2021/12/28 10:46:23;;;;;;;96.55;47.67;;;2.00;99.90;;;;;;5092625;28;20194;-71
2021/12/28 10:49:02;;;;;;;58.35;26.85;;;2.10;99.90;;;;;;5092646;28;20195;-69
2021/12/28 10:51:41;;;;;;;46.47;20.95;;;2.10;99.90;;;;;;5091942;28;20179;-72
2021/12/28 10:54:12;;;;;;;42.88;19.33;;;2.10;99.90;;;;;;5109833;28;20308;-70
2021/12/28 10:56:58;;;;;;;84.65;42.67;;;2.10;99.90;;;;;;5092958;28;20222;-71
2021/12/28 11:01:02;;;;;;;112.50;61.40;;;2.20;99.90;;;;;;5088953;27;20552;-71
2021/12/28 11:03:33;;;;;;;82.60;50.17;;;2.20;99.90;;;;;;5084234;28;20201;-71
2021/12/28 11:06:01;;;;;;;81.40;50.22;;;2.20;99.90;;;;;;5067667;28;20642;-71
2021/12/28 11:08:29;;;;;;;50.60;22.88;;;2.20;99.90;;;;;;5068092;28;20239;-69
2021/12/28 11:11:02;;;;;;;105.22;60.20;;;2.20;99.90;;;;;;5059732;28;20205;-70
2021/12/28 11:13:31;;;;;;;87.90;51.88;;;2.20;99.90;;;;;;5049533;28;20186;-68
2021/12/28 11:16:01;;;;;;;94.13;50.50;;;2.20;99.90;;;;;;5049537;28;20741;-70
2021/12/28 11:18:37;;;;;;;65.20;29.08;;;2.20;99.90;;;;;;5049332;28;20205;-71
2021/12/28 11:21:27;;;;;;;65.85;33.20;;;2.20;99.90;;;;;;5048221;28;20545;-72
2021/12/28 11:24:29;;;;;;;46.85;26.15;;;2.20;99.90;;;;;;5049332;28;20210;-70
2021/12/28 11:27:03;;;;;;;69.90;42.88;;;2.20;99.90;;;;;;5062747;28;20177;-72
2021/12/28 11:29:39;;;;;;;90.97;55.60;;;2.20;99.90;;;;;;5047027;28;20188;-69
2021/12/28 11:32:20;;;;;;;40.30;22.42;;;2.20;99.90;;;;;;5047321;28;20173;-71
2021/12/28 11:34:48;;;;;;;47.25;21.08;;;2.20;99.90;;;;;;5047219;28;20193;-72
2021/12/28 11:37:20;;;;;;;49.83;23.40;;;2.20;99.90;;;;;;5047470;28;20268;-71
2021/12/28 11:39:53;;;;;;;71.43;39.10;;;2.20;99.90;;;;;;5047317;28;20271;-69
2021/12/28 11:42:23;;;;;;;84.65;46.15;;;2.20;99.90;;;;;;5047900;28;20202;-71
2021/12/28 11:44:53;;;;;;;73.25;37.78;;;2.30;99.90;;;;;;5049106;28;20272;-71
2021/12/28 11:47:28;;;;;;;51.88;22.95;;;2.30;99.90;;;;;;5050210;28;20198;-70
2021/12/28 11:49:59;;;;;;;51.08;25.20;;;2.30;99.90;;;;;;5049124;28;20190;-69
2021/12/28 11:52:30;;;;;;;58.55;26.65;;;2.30;99.90;;;;;;5048992;28;20625;-70
2021/12/28 11:55:13;;;;;;;57.28;28.98;;;2.30;99.90;;;;;;5048731;28;20580;-71
2021/12/28 11:57:52;;;;;;;76.60;32.03;;;2.20;99.90;;;;;;5048215;28;20198;-70
2021/12/28 12:00:22;;;;;;;63.45;30.70;;;2.20;99.90;;;;;;5048297;28;20237;-71
2021/12/28 12:02:53;;;;;;;71.00;39.50;;;2.20;99.90;;;;;;5048674;28;20198;-71
2021/12/28 12:05:32;;;;;;;62.35;35.85;;;2.20;99.90;;;;;;5048833;28;20521;-69
2021/12/28 12:08:08;;;;;;;64.30;30.75;;;2.20;99.90;;;;;;5048515;28;20284;-70
2021/12/28 12:10:40;;;;;;;92.43;51.58;;;2.20;99.90;;;;;;5044982;28;20636;-69
2021/12/28 12:13:27;;;;;;;69.40;38.05;;;2.20;99.90;;;;;;5035142;28;20198;-71
2021/12/28 12:18:46;;;;;;;64.97;33.22;;;2.20;99.90;;;;;;5118154;27;20488;-70
2021/12/28 12:21:17;;;;;;;73.53;33.25;;;2.20;99.90;;;;;;5110524;28;20186;-72
2021/12/28 12:23:51;;;;;;;66.85;27.17;;;2.20;99.90;;;;;;5109357;28;20188;-69
2021/12/28 12:26:29;;;;;;;72.65;29.38;;;2.20;99.90;;;;;;5109403;28;20164;-70
2021/12/28 12:29:01;;;;;;;65.43;23.83;;;2.20;99.90;;;;;;5110194;28;20187;-70
2021/12/28 12:31:43;;;;;;;58.70;25.13;;;2.20;99.90;;;;;;5105071;28;20223;-72
2021/12/28 12:34:36;;;;;;;75.53;28.70;;;2.20;99.90;;;;;;5109792;28;20203;-69
2021/12/28 12:37:22;;;;;;;76.25;31.20;;;2.20;99.90;;;;;;5099995;28;20211;-70
2021/12/28 12:39:54;;;;;;;62.15;25.70;;;2.20;99.90;;;;;;5103661;28;20184;-70
2021/12/28 12:42:25;;;;;;;47.92;21.13;;;2.20;99.90;;;;;;5092974;28;20209;-69
2021/12/28 12:45:03;;;;;;;67.05;29.25;;;2.20;99.90;;;;;;5096444;28;20692;-71
2021/12/28 12:47:39;;;;;;;64.15;28.60;;;2.30;99.90;;;;;;5104829;28;20207;-72
2021/12/28 12:50:15;;;;;;;57.50;24.17;;;2.30;99.90;;;;;;5106390;28;20621;-72
2021/12/28 12:52:44;;;;;;;54.20;21.80;;;2.30;99.90;;;;;;5106174;28;20204;-70
2021/12/28 12:55:14;;;;;;;54.50;24.88;;;2.30;99.90;;;;;;5106450;28;20172;-71
2021/12/28 12:57:41;;;;;;;68.18;30.17;;;2.30;99.90;;;;;;5106127;28;20223;-70
2021/12/28 13:00:19;;;;;;;65.90;25.67;;;2.40;99.90;;;;;;5107215;28;20172;-69
2021/12/28 13:03:07;;;;;;;49.75;23.63;;;2.40;99.90;;;;;;5107481;28;20207;-71
2021/12/28 13:05:45;;;;;;;54.35;24.05;;;2.30;99.90;;;;;;5107301;28;20634;-70
2021/12/28 13:08:12;;;;;;;77.72;43.10;;;2.30;99.90;;;;;;5108593;28;20196;-70
2021/12/28 13:10:40;;;;;;;53.50;24.38;;;2.30;99.90;;;;;;5106246;28;20568;-72
2021/12/28 13:13:06;;;;;;;50.30;25.02;;;2.30;99.90;;;;;;5106904;28;20234;-71
2021/12/28 13:15:34;;;;;;;54.67;28.35;;;2.30;99.90;;;;;;5109373;28;20610;-69
2021/12/28 13:18:07;;;;;;;53.58;25.65;;;2.20;99.90;;;;;;5108607;28;20239;-70
2021/12/28 13:20:43;;;;;;;49.20;22.33;;;2.20;99.90;;;;;;5108864;28;20262;-71